Glenwild, Louisiana
Current Conditions -  °F | °C
As of 11:35 AM on Monday 22 Dec 2014 (Local Time) from KPTN Reporting Station
Overcast Overcast  
Wind Chill: 73°   Ceiling: 2300
Heat Index: 73°   Visibility: 10mi
Dew Point: 66°   Wind: 16mph
Humidity: 78%   Direction: 220°SW
Pressure: 29.78"   Gusts: 23mph
Location:  29.6395°N, 91.1648°W
Report Text: KPTN 221735Z AUTO 22014G20KT 10SM SCT015 BKN023 OVC035 23/19 A2978 RMK AO1
Loading
Personal Weather Stations






























Interactive Weather Map New forecast layout! Learn more

10-Day Weather Forecast

Advertisements
Track Severe Weather on mobile